Time;durP1;ratioP1;P1;durP2;ratioP2;P2;SDS_P1;SDS_P2;PMS_P1;PMS_P2;Temp;Humidity;BMP_temperature;BMP_pressure;BME280_temperature;BME280_humidity;BME280_pressure;Samples;Min_cycle;Max_cycle;Signal;HPM_P1;HPM_P2
2023/08/29 00:01:10;;;;;;;;;;;;;;;;;;5072800;28;19932;-73
2023/08/29 00:03:37;;;;;;;;;;;;;;;;;;5072833;28;20007;-73
2023/08/29 00:06:04;;;;;;;;;;;;;;;;;;5072283;28;20379;-73
2023/08/29 00:08:32;;;;;;;;;;;;;;;;;;5073122;28;19962;-74
2023/08/29 00:10:59;;;;;;;;;;;;;;;;;;5072399;28;19924;-74
2023/08/29 00:13:26;;;;;;;;;;;;;;;;;;5073505;28;19986;-73
2023/08/29 00:15:55;;;;;;;;;;;;;;;;;;5071376;28;20460;-73
2023/08/29 00:18:22;;;;;;;;;;;;;;;;;;5072038;28;19925;-73
2023/08/29 00:20:49;;;;;;;;;;;;;;;;;;5072657;28;19978;-74
2023/08/29 00:23:16;;;;;;;;;;;;;;;;;;5072652;28;19970;-73
2023/08/29 00:25:43;;;;;;;;;;;;;;;;;;5072583;28;19925;-74
2023/08/29 00:28:11;;;;;;;;;;;;;;;;;;5069372;28;19928;-73
2023/08/29 00:30:38;;;;;;;;;;;;;;;;;;5070981;28;19970;-73
2023/08/29 00:33:05;;;;;;;;;;;;;;;;;;5071701;28;19924;-73
2023/08/29 00:35:32;;;;;;;;;;;;;;;;;;5072613;28;19978;-73
2023/08/29 00:37:59;;;;;;;;;;;;;;;;;;5071943;28;19947;-74
2023/08/29 00:40:26;;;;;;;;;;;;;;;;;;5072599;28;19928;-73
2023/08/29 00:42:53;;;;;;;;;;;;;;;;;;5072466;28;19954;-73
2023/08/29 00:45:20;;;;;;;;;;;;;;;;;;5060926;28;19928;-73
2023/08/29 00:47:47;;;;;;;;;;;;;;;;;;5073674;28;19970;-73
2023/08/29 00:50:14;;;;;;;;;;;;;;;;;;5074161;28;19970;-73
2023/08/29 00:52:41;;;;;;;;;;;;;;;;;;5073153;28;19925;-74
2023/08/29 00:55:09;;;;;;;;;;;;;;;;;;5062131;28;19929;-74
2023/08/29 00:57:36;;;;;;;;;;;;;;;;;;5072366;28;20018;-73
2023/08/29 01:00:03;;;;;;;;;;;;;;;;;;5072208;28;20410;-73
2023/08/29 01:02:30;;;;;;;;;;;;;;;;;;5068842;28;20018;-73
2023/08/29 01:04:58;;;;;;;;;;;;;;;;;;5070417;28;19925;-74
2023/08/29 01:07:25;;;;;;;;;;;;;;;;;;5072058;28;20019;-74
2023/08/29 01:09:52;;;;;;;;;;;;;;;;;;5072161;28;19924;-73
2023/08/29 01:12:19;;;;;;;;;;;;;;;;;;5071294;28;19925;-74
2023/08/29 01:14:46;;;;;;;;;;;;;;;;;;5071931;28;20022;-74
2023/08/29 01:17:13;;;;;;;;;;;;;;;;;;5070529;28;19924;-73
2023/08/29 01:19:40;;;;;;;;;;;;;;;;;;5064142;28;20292;-73
2023/08/29 01:22:07;;;;;;;;;;;;;;;;;;5070648;28;19924;-73
2023/08/29 01:24:34;;;;;;;;;;;;;;;;;;5053944;28;19928;-72
2023/08/29 01:27:01;;;;;;;;;;;;;;;;;;5065877;28;19928;-73
2023/08/29 01:29:29;;;;;;;;;;;;;;;;;;5071691;28;19924;-74
2023/08/29 01:31:55;;;;;;;;;;;;;;;;;;5072222;28;20026;-73
2023/08/29 01:34:22;;;;;;;;;;;;;;;;;;5070702;28;20384;-73
2023/08/29 01:36:49;;;;;;;;;;;;;;;;;;5060156;28;20436;-74
2023/08/29 01:39:16;;;;;;;;;;;;;;;;;;5071475;28;19924;-74
2023/08/29 01:41:43;;;;;;;;;;;;;;;;;;5071060;28;19925;-74
2023/08/29 01:44:10;;;;;;;;;;;;;;;;;;5073052;28;19978;-73
2023/08/29 01:46:37;;;;;;;;;;;;;;;;;;5075230;28;19928;-72
2023/08/29 01:49:04;;;;;;;;;;;;;;;;;;5075710;28;19932;-73
2023/08/29 01:51:31;;;;;;;;;;;;;;;;;;5075350;28;20342;-73
2023/08/29 01:53:58;;;;;;;;;;;;;;;;;;5068190;28;19978;-73
2023/08/29 01:56:25;;;;;;;;;;;;;;;;;;5075639;28;20333;-73
2023/08/29 01:58:53;;;;;;;;;;;;;;;;;;5075797;28;19970;-74
2023/08/29 02:01:20;;;;;;;;;;;;;;;;;;5075674;28;19931;-73
2023/08/29 02:03:47;;;;;;;;;;;;;;;;;;5074983;28;20383;-73
2023/08/29 02:06:14;;;;;;;;;;;;;;;;;;5075662;28;19929;-73
2023/08/29 02:08:41;;;;;;;;;;;;;;;;;;5074047;28;19929;-73
2023/08/29 02:11:08;;;;;;;;;;;;;;;;;;5073593;28;19982;-73
2023/08/29 02:13:35;;;;;;;;;;;;;;;;;;5075522;28;20323;-73
2023/08/29 02:16:03;;;;;;;;;;;;;;;;;;5075239;28;19975;-73
2023/08/29 02:18:30;;;;;;;;;;;;;;;;;;5062670;28;20019;-73
2023/08/29 02:20:57;;;;;;;;;;;;;;;;;;5074194;28;20338;-73
2023/08/29 02:23:24;;;;;;;;;;;;;;;;;;5071954;28;19924;-73
2023/08/29 02:25:51;;;;;;;;;;;;;;;;;;5073598;28;19924;-73
2023/08/29 02:28:18;;;;;;;;;;;;;;;;;;5074346;28;19932;-73
2023/08/29 02:30:45;;;;;;;;;;;;;;;;;;5074604;28;19925;-73
2023/08/29 02:33:12;;;;;;;;;;;;;;;;;;5074812;28;20346;-73
2023/08/29 02:35:39;;;;;;;;;;;;;;;;;;5074572;28;19946;-73
2023/08/29 02:38:06;;;;;;;;;;;;;;;;;;5074033;28;19925;-72
2023/08/29 02:40:33;;;;;;;;;;;;;;;;;;5074521;28;19962;-72
2023/08/29 02:43:00;;;;;;;;;;;;;;;;;;5072111;28;19931;-73
2023/08/29 02:45:27;;;;;;;;;;;;;;;;;;5074409;28;19925;-72
2023/08/29 02:47:54;;;;;;;;;;;;;;;;;;5073865;28;19924;-72
2023/08/29 02:50:21;;;;;;;;;;;;;;;;;;5073438;28;19924;-73
2023/08/29 02:52:48;;;;;;;;;;;;;;;;;;5054645;28;19924;-73
2023/08/29 02:55:15;;;;;;;;;;;;;;;;;;5056133;28;20055;-73
2023/08/29 02:57:42;;;;;;;;;;;;;;;;;;5073979;28;19928;-73
2023/08/29 03:00:10;;;;;;;;;;;;;;;;;;5071247;28;19928;-74
2023/08/29 03:02:37;;;;;;;;;;;;;;;;;;5074967;28;20451;-73
2023/08/29 03:05:04;;;;;;;;;;;;;;;;;;5074210;28;20016;-72
2023/08/29 03:07:31;;;;;;;;;;;;;;;;;;5074456;28;19978;-73
2023/08/29 03:09:58;;;;;;;;;;;;;;;;;;5074486;28;19928;-73
2023/08/29 03:12:25;;;;;;;;;;;;;;;;;;5067271;28;19956;-73
2023/08/29 03:14:53;;;;;;;;;;;;;;;;;;5073997;28;19928;-73
2023/08/29 03:17:20;;;;;;;;;;;;;;;;;;5072997;28;19924;-73
2023/08/29 03:19:47;;;;;;;;;;;;;;;;;;5074035;28;19924;-74
2023/08/29 03:22:14;;;;;;;;;;;;;;;;;;5074104;28;19970;-73
2023/08/29 03:24:41;;;;;;;;;;;;;;;;;;5074677;28;19936;-73
2023/08/29 03:27:09;;;;;;;;;;;;;;;;;;5073538;28;19924;-73
2023/08/29 03:29:36;;;;;;;;;;;;;;;;;;5073066;28;19928;-72
2023/08/29 03:32:03;;;;;;;;;;;;;;;;;;5073452;28;20268;-72
2023/08/29 03:34:30;;;;;;;;;;;;;;;;;;5072480;28;19924;-72
2023/08/29 03:36:57;;;;;;;;;;;;;;;;;;5073411;28;19970;-73
2023/08/29 03:39:24;;;;;;;;;;;;;;;;;;5071879;28;19925;-73
2023/08/29 03:41:51;;;;;;;;;;;;;;;;;;5072440;28;19933;-73
2023/08/29 03:44:18;;;;;;;;;;;;;;;;;;5073808;28;19924;-73
2023/08/29 03:46:45;;;;;;;;;;;;;;;;;;5072707;28;20302;-73
2023/08/29 03:49:12;;;;;;;;;;;;;;;;;;5073085;28;19928;-73
2023/08/29 03:51:39;;;;;;;;;;;;;;;;;;5069918;28;19974;-73
2023/08/29 03:54:06;;;;;;;;;;;;;;;;;;5073561;28;19925;-72
2023/08/29 03:56:33;;;;;;;;;;;;;;;;;;5072813;28;20440;-73
2023/08/29 03:59:01;;;;;;;;;;;;;;;;;;5073936;28;20273;-73
2023/08/29 04:01:28;;;;;;;;;;;;;;;;;;5072744;28;19925;-73
2023/08/29 04:03:55;;;;;;;;;;;;;;;;;;5072998;28;20024;-73
2023/08/29 04:06:22;;;;;;;;;;;;;;;;;;5070744;28;19959;-73
2023/08/29 04:08:49;;;;;;;;;;;;;;;;;;5070230;28;20337;-73
2023/08/29 04:11:16;;;;;;;;;;;;;;;;;;5072380;28;19978;-73
2023/08/29 04:13:44;;;;;;;;;;;;;;;;;;5072687;28;19924;-73
2023/08/29 04:16:11;;;;;;;;;;;;;;;;;;5072593;28;19924;-73
2023/08/29 04:18:38;;;;;;;;;;;;;;;;;;5072423;28;20299;-73
2023/08/29 04:21:05;;;;;;;;;;;;;;;;;;5073110;28;19986;-73
2023/08/29 04:23:32;;;;;;;;;;;;;;;;;;5073448;28;19925;-72
2023/08/29 04:25:59;;;;;;;;;;;;;;;;;;5076713;28;19978;-73
2023/08/29 04:28:26;;;;;;;;;;;;;;;;;;5074461;28;19960;-72
2023/08/29 04:30:54;;;;;;;;;;;;;;;;;;5073271;28;19947;-71
2023/08/29 04:33:21;;;;;;;;;;;;;;;;;;5073133;28;19974;-71
2023/08/29 04:35:48;;;;;;;;;;;;;;;;;;5072900;28;19978;-72
2023/08/29 04:38:15;;;;;;;;;;;;;;;;;;5072638;28;19924;-72
2023/08/29 04:40:42;;;;;;;;;;;;;;;;;;5071817;28;20375;-71
2023/08/29 04:43:09;;;;;;;;;;;;;;;;;;5071292;28;19956;-71
2023/08/29 04:45:36;;;;;;;;;;;;;;;;;;5071329;28;19935;-72
2023/08/29 04:48:06;;;;;;;;;;;;;;;;;;5069628;28;19924;-74
2023/08/29 04:50:33;;;;;;;;;;;;;;;;;;5070805;28;19925;-71
2023/08/29 04:53:00;;;;;;;;;;;;;;;;;;5071316;28;20037;-70
2023/08/29 04:55:27;;;;;;;;;;;;;;;;;;5070601;28;19924;-71
2023/08/29 04:57:56;;;;;;;;;;;;;;;;;;5071471;28;19932;-70
2023/08/29 05:00:23;;;;;;;;;;;;;;;;;;5056621;28;20027;-71
2023/08/29 05:02:50;;;;;;;;;;;;;;;;;;5057120;28;19924;-71
2023/08/29 05:05:17;;;;;;;;;;;;;;;;;;5071908;28;19975;-70
2023/08/29 05:07:45;;;;;;;;;;;;;;;;;;5071392;28;19924;-71
2023/08/29 05:10:12;;;;;;;;;;;;;;;;;;5071617;28;19932;-70
2023/08/29 05:12:41;;;;;;;;;;;;;;;;;;5072153;28;20287;-71
2023/08/29 05:15:08;;;;;;;;;;;;;;;;;;5071359;28;20402;-71
2023/08/29 05:17:35;;;;;;;;;;;;;;;;;;5055846;28;19971;-71
2023/08/29 05:20:02;;;;;;;;;;;;;;;;;;5074977;28;19982;-71
2023/08/29 05:22:29;;;;;;;;;;;;;;;;;;5078311;28;20272;-72
2023/08/29 05:24:56;;;;;;;;;;;;;;;;;;5075910;28;20391;-71
2023/08/29 05:27:23;;;;;;;;;;;;;;;;;;5075454;28;19924;-71
2023/08/29 05:29:50;;;;;;;;;;;;;;;;;;5078206;28;19924;-71
2023/08/29 05:32:17;;;;;;;;;;;;;;;;;;5077574;28;20264;-71
2023/08/29 05:34:44;;;;;;;;;;;;;;;;;;5076270;28;19971;-71
2023/08/29 05:37:11;;;;;;;;;;;;;;;;;;5078200;28;19924;-70
2023/08/29 05:39:38;;;;;;;;;;;;;;;;;;5077676;28;19998;-70
2023/08/29 05:42:06;;;;;;;;;;;;;;;;;;5077271;28;19935;-71
2023/08/29 05:44:33;;;;;;;;;;;;;;;;;;5076864;28;20338;-71
2023/08/29 05:47:00;;;;;;;;;;;;;;;;;;5078108;28;19964;-71
2023/08/29 05:49:27;;;;;;;;;;;;;;;;;;5077556;28;20337;-69
2023/08/29 05:51:54;;;;;;;;;;;;;;;;;;5074551;28;20345;-69
2023/08/29 05:54:21;;;;;;;;;;;;;;;;;;5075657;28;19978;-69
2023/08/29 05:56:48;;;;;;;;;;;;;;;;;;5078027;28;19924;-68
2023/08/29 05:59:15;;;;;;;;;;;;;;;;;;5078257;28;19986;-69
2023/08/29 06:01:43;;;;;;;;;;;;;;;;;;5077851;28;20436;-70
2023/08/29 06:04:10;;;;;;;;;;;;;;;;;;5075123;28;20011;-70
2023/08/29 06:06:39;;;;;;;;;;;;;;;;;;5076440;28;19970;-71
2023/08/29 06:09:08;;;;;;;;;;;;;;;;;;5076586;28;20355;-71
2023/08/29 06:11:35;;;;;;;;;;;;;;;;;;5073496;28;19982;-71
2023/08/29 06:14:02;;;;;;;;;;;;;;;;;;5076834;28;19932;-70
2023/08/29 06:16:29;;;;;;;;;;;;;;;;;;5060134;28;21353;-71
2023/08/29 06:18:56;;;;;;;;;;;;;;;;;;5074511;28;19932;-71
2023/08/29 06:21:23;;;;;;;;;;;;;;;;;;5079075;28;19950;-71
2023/08/29 06:23:50;;;;;;;;;;;;;;;;;;5074905;28;19925;-71
2023/08/29 06:26:18;;;;;;;;;;;;;;;;;;5081338;28;19930;-70
2023/08/29 06:28:45;;;;;;;;;;;;;;;;;;5075995;28;19924;-72
2023/08/29 06:31:12;;;;;;;;;;;;;;;;;;5073163;28;19933;-71
2023/08/29 06:33:39;;;;;;;;;;;;;;;;;;5063048;28;19977;-71
2023/08/29 06:36:06;;;;;;;;;;;;;;;;;;5064737;28;19931;-71
2023/08/29 06:38:34;;;;;;;;;;;;;;;;;;5063368;28;19932;-71
2023/08/29 06:41:02;;;;;;;;;;;;;;;;;;5073695;28;20012;-70
2023/08/29 06:43:29;;;;;;;;;;;;;;;;;;5063705;28;19939;-71
2023/08/29 06:45:56;;;;;;;;;;;;;;;;;;5069744;28;19970;-72
2023/08/29 06:48:23;;;;;;;;;;;;;;;;;;5067000;28;20429;-71
2023/08/29 06:50:50;;;;;;;;;;;;;;;;;;5062465;28;19933;-72
2023/08/29 06:53:17;;;;;;;;;;;;;;;;;;5069005;28;19936;-71
2023/08/29 06:55:45;;;;;;;;;;;;;;;;;;5067697;28;19925;-72
2023/08/29 06:58:12;;;;;;;;;;;;;;;;;;5070169;28;19951;-72
2023/08/29 07:00:39;;;;;;;;;;;;;;;;;;5073318;28;19924;-72
2023/08/29 07:03:06;;;;;;;;;;;;;;;;;;5073246;28;20394;-72
2023/08/29 07:05:33;;;;;;;;;;;;;;;;;;5076610;28;19933;-71
2023/08/29 07:08:00;;;;;;;;;;;;;;;;;;5077442;28;19931;-71
2023/08/29 07:10:27;;;;;;;;;;;;;;;;;;5074121;28;19954;-72
2023/08/29 07:12:54;;;;;;;;;;;;;;;;;;5077106;28;19977;-71
2023/08/29 07:15:22;;;;;;;;;;;;;;;;;;5073054;28;19925;-71
2023/08/29 07:17:49;;;;;;;;;;;;;;;;;;5069397;28;20288;-71
2023/08/29 07:20:16;;;;;;;;;;;;;;;;;;5077947;28;19924;-72
2023/08/29 07:22:44;;;;;;;;;;;;;;;;;;5080931;28;19924;-72
2023/08/29 07:25:11;;;;;;;;;;;;;;;;;;5077096;28;20011;-71
2023/08/29 07:27:38;;;;;;;;;;;;;;;;;;5074166;28;19931;-71
2023/08/29 07:30:05;;;;;;;;;;;;;;;;;;5080408;28;20452;-71
2023/08/29 07:32:32;;;;;;;;;;;;;;;;;;5065691;28;20442;-71
2023/08/29 07:34:59;;;;;;;;;;;;;;;;;;5064748;28;19924;-71
2023/08/29 07:37:26;;;;;;;;;;;;;;;;;;5083867;28;19970;-71
2023/08/29 07:39:53;;;;;;;;;;;;;;;;;;5079385;28;19974;-71
2023/08/29 07:42:21;;;;;;;;;;;;;;;;;;5073133;28;19932;-71
2023/08/29 07:44:48;;;;;;;;;;;;;;;;;;5078818;28;20272;-71
2023/08/29 07:47:15;;;;;;;;;;;;;;;;;;5071913;28;19924;-71
2023/08/29 07:49:42;;;;;;;;;;;;;;;;;;5064868;28;19924;-71
2023/08/29 07:52:09;;;;;;;;;;;;;;;;;;5064923;28;19925;-71
2023/08/29 07:54:36;;;;;;;;;;;;;;;;;;5068032;28;19971;-72
2023/08/29 07:57:03;;;;;;;;;;;;;;;;;;5065185;28;20275;-70
2023/08/29 07:59:30;;;;;;;;;;;;;;;;;;5067678;28;19931;-73
2023/08/29 08:01:57;;;;;;;;;;;;;;;;;;5071905;28;19924;-71
2023/08/29 08:04:25;;;;;;;;;;;;;;;;;;5066001;28;19931;-73
2023/08/29 08:06:52;;;;;;;;;;;;;;;;;;5070991;22;20002;-73
2023/08/29 08:09:19;;;;;;;;;;;;;;;;;;5062950;28;19936;-72
2023/08/29 08:11:46;;;;;;;;;;;;;;;;;;5064611;28;20065;-65
2023/08/29 08:14:13;;;;;;;;;;;;;;;;;;5066818;28;19998;-62
2023/08/29 08:16:40;;;;;;;;;;;;;;;;;;5069809;28;19925;-63
2023/08/29 08:19:07;;;;;;;;;;;;;;;;;;5069045;28;19925;-63
2023/08/29 08:21:34;;;;;;;;;;;;;;;;;;5063051;28;19925;-64
2023/08/29 08:24:01;;;;;;;;;;;;;;;;;;5068906;28;19924;-64
2023/08/29 08:26:28;;;;;;;;;;;;;;;;;;5064982;28;19924;-64
2023/08/29 08:28:58;;;;;;;;;;;;;;;;;;5070115;28;19934;-65
2023/08/29 08:31:25;;;;;;;;;;;;;;;;;;5069130;28;19978;-65
2023/08/29 08:33:52;;;;;;;;;;;;;;;;;;5066674;28;20373;-65
2023/08/29 08:36:20;;;;;;;;;;;;;;;;;;5067373;28;20118;-65
2023/08/29 08:38:47;;;;;;;;;;;;;;;;;;5070895;28;19928;-68
2023/08/29 08:41:14;;;;;;;;;;;;;;;;;;5066879;28;19977;-65
2023/08/29 08:43:41;;;;;;;;;;;;;;;;;;5067102;28;19928;-65
2023/08/29 08:46:08;;;;;;;;;;;;;;;;;;5068524;28;19939;-65
2023/08/29 08:48:35;;;;;;;;;;;;;;;;;;5064114;28;20459;-65
2023/08/29 08:51:04;;;;;;;;;;;;;;;;;;5068475;28;19924;-64
2023/08/29 08:53:31;;;;;;;;;;;;;;;;;;5064168;28;19928;-64
2023/08/29 08:55:58;;;;;;;;;;;;;;;;;;5064576;28;21000;-64
2023/08/29 08:58:25;;;;;;;;;;;;;;;;;;5061216;28;19925;-68
2023/08/29 09:00:52;;;;;;;;;;;;;;;;;;5068133;28;19978;-67
2023/08/29 09:03:19;;;;;;;;;;;;;;;;;;5069599;28;20387;-66
2023/08/29 09:05:47;;;;;;;;;;;;;;;;;;5067560;28;20364;-65
2023/08/29 09:08:14;;;;;;;;;;;;;;;;;;5069959;28;19933;-72
2023/08/29 09:10:41;;;;;;;;;;;;;;;;;;5066900;28;20291;-73
2023/08/29 09:13:08;;;;;;;;;;;;;;;;;;5070376;28;19970;-72
2023/08/29 09:15:35;;;;;;;;;;;;;;;;;;5071216;28;20334;-74
2023/08/29 09:18:02;;;;;;;;;;;;;;;;;;5067420;28;19967;-71
2023/08/29 09:20:29;;;;;;;;;;;;;;;;;;5068558;28;19977;-69
2023/08/29 09:22:56;;;;;;;;;;;;;;;;;;5069113;28;19925;-71
2023/08/29 09:25:23;;;;;;;;;;;;;;;;;;5064075;28;19925;-69
2023/08/29 09:27:50;;;;;;;;;;;;;;;;;;5068805;28;20025;-73
2023/08/29 09:30:17;;;;;;;;;;;;;;;;;;5066814;28;19924;-70
2023/08/29 09:32:44;;;;;;;;;;;;;;;;;;5067183;28;19928;-70
2023/08/29 09:35:11;;;;;;;;;;;;;;;;;;5070724;28;19990;-69
2023/08/29 09:37:37;;;;;;;;;;;;;;;;;;5069877;28;19924;-68
2023/08/29 09:40:06;;;;;;;;;;;;;;;;;;5068085;28;19994;-68
2023/08/29 09:42:33;;;;;;;;;;;;;;;;;;5066563;28;19928;-70
2023/08/29 09:45:00;;;;;;;;;;;;;;;;;;5068419;28;19925;-70
2023/08/29 09:47:27;;;;;;;;;;;;;;;;;;5065620;28;20422;-71
2023/08/29 09:49:57;;;;;;;;;;;;;;;;;;5069364;28;19978;-67
2023/08/29 09:52:24;;;;;;;;;;;;;;;;;;5069612;28;19977;-69
2023/08/29 09:54:51;;;;;;;;;;;;;;;;;;5070419;28;19956;-68
2023/08/29 09:57:19;;;;;;;;;;;;;;;;;;5070943;28;19924;-68
2023/08/29 09:59:46;;;;;;;;;;;;;;;;;;5070557;28;19972;-68
2023/08/29 10:02:13;;;;;;;;;;;;;;;;;;5068176;28;19924;-69
2023/08/29 10:04:40;;;;;;;;;;;;;;;;;;5071467;28;20341;-69
2023/08/29 10:07:07;;;;;;;;;;;;;;;;;;5072669;28;19928;-70
2023/08/29 10:09:34;;;;;;;;;;;;;;;;;;5073945;28;20285;-70
2023/08/29 10:12:01;;;;;;;;;;;;;;;;;;5067289;28;20431;-70
2023/08/29 10:14:28;;;;;;;;;;;;;;;;;;5073409;28;19924;-69
2023/08/29 10:16:58;;;;;;;;;;;;;;;;;;5072943;28;20458;-70
2023/08/29 10:19:25;;;;;;;;;;;;;;;;;;5068567;28;19963;-70
2023/08/29 10:21:52;;;;;;;;;;;;;;;;;;5061893;28;20352;-69
2023/08/29 10:24:19;;;;;;;;;;;;;;;;;;5073755;28;20023;-69
2023/08/29 10:26:46;;;;;;;;;;;;;;;;;;5058705;28;19962;-69
2023/08/29 10:29:13;;;;;;;;;;;;;;;;;;5072818;28;20395;-71
2023/08/29 10:31:40;;;;;;;;;;;;;;;;;;5071435;28;19929;-70
2023/08/29 10:34:07;;;;;;;;;;;;;;;;;;5071063;28;19957;-70
2023/08/29 10:36:34;;;;;;;;;;;;;;;;;;5072060;28;20380;-69
2023/08/29 10:39:02;;;;;;;;;;;;;;;;;;5068910;28;19978;-69
2023/08/29 10:41:29;;;;;;;;;;;;;;;;;;5072166;28;19978;-69
2023/08/29 10:43:56;;;;;;;;;;;;;;;;;;5072503;28;19925;-68
2023/08/29 10:46:23;;;;;;;;;;;;;;;;;;5069171;28;19924;-68
2023/08/29 10:48:52;;;;;;;;;;;;;;;;;;5070198;28;19935;-69
2023/08/29 10:51:19;;;;;;;;;;;;;;;;;;5072323;28;19932;-67
2023/08/29 10:53:46;;;;;;;;;;;;;;;;;;5071011;28;19989;-67
2023/08/29 10:56:14;;;;;;;;;;;;;;;;;;5073473;28;19932;-68
2023/08/29 10:58:40;;;;;;;;;;;;;;;;;;5067267;28;19925;-67
2023/08/29 11:01:08;;;;;;;;;;;;;;;;;;5067964;28;19976;-67
2023/08/29 11:03:35;;;;;;;;;;;;;;;;;;5064618;28;19977;-67
2023/08/29 11:06:02;;;;;;;;;;;;;;;;;;5070964;28;19970;-68
2023/08/29 11:08:29;;;;;;;;;;;;;;;;;;5072691;28;19925;-69
2023/08/29 11:10:57;;;;;;;;;;;;;;;;;;5070991;28;19924;-69
2023/08/29 11:13:24;;;;;;;;;;;;;;;;;;5070951;28;20015;-68
2023/08/29 11:15:50;;;;;;;;;;;;;;;;;;5072742;28;19925;-70
2023/08/29 11:18:17;;;;;;;;;;;;;;;;;;5071684;28;20015;-69
2023/08/29 11:20:44;;;;;;;;;;;;;;;;;;5072538;28;20325;-68
2023/08/29 11:23:11;;;;;;;;;;;;;;;;;;5071826;28;19979;-68
2023/08/29 11:25:38;;;;;;;;;;;;;;;;;;5054743;28;19932;-68
2023/08/29 11:28:05;;;;;;;;;;;;;;;;;;5070944;28;19925;-68
2023/08/29 11:30:32;;;;;;;;;;;;;;;;;;5071666;28;20464;-67
2023/08/29 11:32:59;;;;;;;;;;;;;;;;;;5066899;28;19982;-68
2023/08/29 11:35:26;;;;;;;;;;;;;;;;;;5071684;28;19928;-69
2023/08/29 11:37:54;;;;;;;;;;;;;;;;;;5070470;28;19924;-67
2023/08/29 11:40:21;;;;;;;;;;;;;;;;;;5072535;28;19938;-69
2023/08/29 11:42:48;;;;;;;;;;;;;;;;;;5071760;28;19924;-67
2023/08/29 11:45:15;;;;;;;;;;;;;;;;;;5067648;28;19940;-68
2023/08/29 11:47:43;;;;;;;;;;;;;;;;;;5068206;28;19924;-68
2023/08/29 11:50:11;;;;;;;;;;;;;;;;;;5068534;28;20392;-66
2023/08/29 11:52:38;;;;;;;;;;;;;;;;;;5066600;28;19947;-67
2023/08/29 11:55:05;;;;;;;;;;;;;;;;;;5070077;28;21158;-67
2023/08/29 11:57:32;;;;;;;;;;;;;;;;;;5069241;28;19970;-67
2023/08/29 12:00:00;;;;;;;;;;;;;;;;;;5068037;28;19928;-67
2023/08/29 12:02:27;;;;;;;;;;;;;;;;;;5068401;28;19974;-67
2023/08/29 12:04:55;;;;;;;;;;;;;;;;;;5072619;28;19924;-67
2023/08/29 12:07:23;;;;;;;;;;;;;;;;;;5070677;28;19928;-68
2023/08/29 12:09:50;;;;;;;;;;;;;;;;;;5072224;28;19928;-68
2023/08/29 12:12:17;;;;;;;;;;;;;;;;;;5071689;28;19935;-67
2023/08/29 12:14:44;;;;;;;;;;;;;;;;;;5071586;28;19924;-68
2023/08/29 12:17:12;;;;;;;;;;;;;;;;;;5071256;28;20334;-68
2023/08/29 12:19:39;;;;;;;;;;;;;;;;;;5070482;28;19932;-67
2023/08/29 12:22:06;;;;;;;;;;;;;;;;;;5068616;28;19978;-69
2023/08/29 12:24:33;;;;;;;;;;;;;;;;;;5068194;28;19924;-68
2023/08/29 12:27:00;;;;;;;;;;;;;;;;;;5066761;28;20348;-69
2023/08/29 12:29:27;;;;;;;;;;;;;;;;;;5063639;28;20363;-68
2023/08/29 12:31:55;;;;;;;;;;;;;;;;;;5069049;28;19928;-67
2023/08/29 12:34:22;;;;;;;;;;;;;;;;;;5063106;28;20307;-69
2023/08/29 12:36:49;;;;;;;;;;;;;;;;;;5071114;28;19970;-68
2023/08/29 12:39:16;;;;;;;;;;;;;;;;;;5070421;28;20379;-68
2023/08/29 12:41:43;;;;;;;;;;;;;;;;;;5070039;28;19924;-68
2023/08/29 12:44:11;;;;;;;;;;;;;;;;;;5069846;28;19928;-68
2023/08/29 12:46:38;;;;;;;;;;;;;;;;;;5067230;28;19925;-68
2023/08/29 12:49:05;;;;;;;;;;;;;;;;;;5068771;28;19947;-68
2023/08/29 12:51:32;;;;;;;;;;;;;;;;;;5069181;28;19931;-69
2023/08/29 12:54:02;;;;;;;;;;;;;;;;;;5068312;28;19932;-69
2023/08/29 12:56:29;;;;;;;;;;;;;;;;;;5068685;28;19978;-67
2023/08/29 12:58:57;;;;;;;;;;;;;;;;;;5066876;28;20398;-69
2023/08/29 13:01:27;;;;;;;;;;;;;;;;;;5069272;28;20256;-68
2023/08/29 13:03:54;;;;;;;;;;;;;;;;;;5069100;28;19924;-68
2023/08/29 13:06:21;;;;;;;;;;;;;;;;;;5069866;28;19940;-68
2023/08/29 13:08:49;;;;;;;;;;;;;;;;;;5069731;28;19932;-68
2023/08/29 13:11:16;;;;;;;;;;;;;;;;;;5071518;28;19975;-68
2023/08/29 13:13:43;;;;;;;;;;;;;;;;;;5069667;28;20015;-68
2023/08/29 13:16:10;;;;;;;;;;;;;;;;;;5070364;28;19924;-69
2023/08/29 13:18:37;;;;;;;;;;;;;;;;;;5070636;28;19925;-69
2023/08/29 13:21:04;;;;;;;;;;;;;;;;;;5071854;28;19924;-69
2023/08/29 13:23:31;;;;;;;;;;;;;;;;;;5070671;28;19930;-69
2023/08/29 13:25:57;;;;;;;;;;;;;;;;;;5066982;28;19925;-69
2023/08/29 13:28:25;;;;;;;;;;;;;;;;;;5068351;28;20298;-69
2023/08/29 13:30:52;;;;;;;;;;;;;;;;;;5067658;28;20411;-68
2023/08/29 13:33:20;;;;;;;;;;;;;;;;;;5068800;28;19932;-69
2023/08/29 13:35:47;;;;;;;;;;;;;;;;;;5067741;28;19928;-69
2023/08/29 13:38:14;;;;;;;;;;;;;;;;;;5070179;28;19924;-68
2023/08/29 13:40:42;;;;;;;;;;;;;;;;;;5062974;28;19964;-68
2023/08/29 13:43:09;;;;;;;;;;;;;;;;;;5075805;28;19925;-69
2023/08/29 13:45:36;;;;;;;;;;;;;;;;;;5073632;28;19928;-69
2023/08/29 13:48:04;;;;;;;;;;;;;;;;;;5074342;28;20009;-68
2023/08/29 13:50:31;;;;;;;;;;;;;;;;;;5073592;28;19928;-67
2023/08/29 13:52:58;;;;;;;;;;;;;;;;;;5074868;28;19987;-68
2023/08/29 13:55:26;;;;;;;;;;;;;;;;;;5074347;28;19925;-68
2023/08/29 13:57:53;;;;;;;;;;;;;;;;;;5072951;28;19975;-68
2023/08/29 14:00:20;;;;;;;;;;;;;;;;;;5073932;28;20399;-67
2023/08/29 14:02:47;;;;;;;;;;;;;;;;;;5066974;28;19932;-68
2023/08/29 14:05:14;;;;;;;;;;;;;;;;;;5074151;28;19925;-68
2023/08/29 14:07:41;;;;;;;;;;;;;;;;;;5072039;28;19989;-68
2023/08/29 14:10:08;;;;;;;;;;;;;;;;;;5070172;28;19924;-69
2023/08/29 14:12:35;;;;;;;;;;;;;;;;;;5069795;28;19924;-68
2023/08/29 14:15:03;;;;;;;;;;;;;;;;;;5074085;28;20280;-68
2023/08/29 14:17:30;;;;;;;;;;;;;;;;;;5074931;28;20445;-69
2023/08/29 14:19:57;;;;;;;;;;;;;;;;;;5075091;28;19924;-68
2023/08/29 14:22:24;;;;;;;;;;;;;;;;;;5074914;28;19964;-69
2023/08/29 14:24:51;;;;;;;;;;;;;;;;;;5071666;28;20394;-69
2023/08/29 14:27:18;;;;;;;;;;;;;;;;;;5073571;28;19970;-68
2023/08/29 14:29:45;;;;;;;;;;;;;;;;;;5073355;28;19932;-68
2023/08/29 14:32:12;;;;;;;;;;;;;;;;;;5074210;28;19924;-67
2023/08/29 14:34:39;;;;;;;;;;;;;;;;;;5074269;28;19978;-68
2023/08/29 14:37:06;;;;;;;;;;;;;;;;;;5074321;28;19928;-68
2023/08/29 14:39:34;;;;;;;;;;;;;;;;;;5074398;28;20401;-68
2023/08/29 14:42:01;;;;;;;;;;;;;;;;;;5074237;28;19924;-68
2023/08/29 14:44:28;;;;;;;;;;;;;;;;;;5073750;28;19974;-63
2023/08/29 14:46:55;;;;;;;;;;;;;;;;;;5070263;28;19924;-63
2023/08/29 14:49:22;;;;;;;;;;;;;;;;;;5073961;28;19924;-68
2023/08/29 14:51:49;;;;;;;;;;;;;;;;;;5073477;28;19925;-68
2023/08/29 14:54:16;;;;;;;;;;;;;;;;;;5063851;28;20424;-69
2023/08/29 14:56:43;;;;;;;;;;;;;;;;;;5071323;28;20359;-69
2023/08/29 14:59:10;;;;;;;;;;;;;;;;;;5073407;28;19924;-67
2023/08/29 15:01:37;;;;;;;;;;;;;;;;;;5066943;28;19924;-67
2023/08/29 15:04:05;;;;;;;;;;;;;;;;;;5070018;28;19924;-68
2023/08/29 15:06:32;;;;;;;;;;;;;;;;;;5072385;28;20372;-68
2023/08/29 15:09:00;;;;;;;;;;;;;;;;;;5073358;28;19924;-68
2023/08/29 15:11:27;;;;;;;;;;;;;;;;;;5070798;28;19947;-68
2023/08/29 15:13:54;;;;;;;;;;;;;;;;;;5071779;28;19925;-68
2023/08/29 15:16:21;;;;;;;;;;;;;;;;;;5071980;28;19925;-68
2023/08/29 15:18:48;;;;;;;;;;;;;;;;;;5068482;28;19993;-68
2023/08/29 15:21:15;;;;;;;;;;;;;;;;;;5067080;28;19989;-69
2023/08/29 15:23:42;;;;;;;;;;;;;;;;;;5073066;28;19925;-68
2023/08/29 15:26:11;;;;;;;;;;;;;;;;;;5071629;28;19928;-68
2023/08/29 15:28:38;;;;;;;;;;;;;;;;;;5070576;28;20371;-68
2023/08/29 15:31:05;;;;;;;;;;;;;;;;;;5062587;28;19946;-67
2023/08/29 15:33:32;;;;;;;;;;;;;;;;;;5073133;28;19925;-67
2023/08/29 15:35:59;;;;;;;;;;;;;;;;;;5067509;28;19928;-67
2023/08/29 15:38:26;;;;;;;;;;;;;;;;;;5071724;28;20440;-67
2023/08/29 15:40:54;;;;;;;;;;;;;;;;;;5071317;28;19924;-68
2023/08/29 15:43:21;;;;;;;;;;;;;;;;;;5071026;28;20658;-67
2023/08/29 15:45:48;;;;;;;;;;;;;;;;;;5072293;28;19924;-67
2023/08/29 15:48:15;;;;;;;;;;;;;;;;;;5073458;28;19924;-68
2023/08/29 15:50:42;;;;;;;;;;;;;;;;;;5068345;28;19936;-68
2023/08/29 15:53:09;;;;;;;;;;;;;;;;;;5069929;28;20265;-68
2023/08/29 15:55:36;;;;;;;;;;;;;;;;;;5067654;28;19933;-68
2023/08/29 15:58:04;;;;;;;;;;;;;;;;;;5071374;28;19924;-68
2023/08/29 16:00:31;;;;;;;;;;;;;;;;;;5059847;28;19928;-69
2023/08/29 16:02:58;;;;;;;;;;;;;;;;;;5063871;28;20450;-69
2023/08/29 16:05:26;;;;;;;;;;;;;;;;;;5072749;28;19940;-68
2023/08/29 16:07:54;;;;;;;;;;;;;;;;;;5073238;28;20376;-69
2023/08/29 16:10:21;;;;;;;;;;;;;;;;;;5070066;28;19924;-68
2023/08/29 16:12:49;;;;;;;;;;;;;;;;;;5069944;28;19932;-71
2023/08/29 16:15:16;;;;;;;;;;;;;;;;;;5059709;28;19928;-70
2023/08/29 16:17:43;;;;;;;;;;;;;;;;;;5071853;28;20401;-69
2023/08/29 16:20:10;;;;;;;;;;;;;;;;;;5072531;28;19978;-69
2023/08/29 16:22:37;;;;;;;;;;;;;;;;;;5071059;28;19925;-69
2023/08/29 16:25:04;;;;;;;;;;;;;;;;;;5072015;28;20368;-69
2023/08/29 16:27:32;;;;;;;;;;;;;;;;;;5067260;28;19925;-69
2023/08/29 16:29:59;;;;;;;;;;;;;;;;;;5063320;28;20421;-68
2023/08/29 16:32:26;;;;;;;;;;;;;;;;;;5072985;28;19924;-69
2023/08/29 16:34:53;;;;;;;;;;;;;;;;;;5072337;28;20403;-68
2023/08/29 16:37:20;;;;;;;;;;;;;;;;;;5072180;28;20011;-69
2023/08/29 16:39:47;;;;;;;;;;;;;;;;;;5071770;28;19982;-68
2023/08/29 16:42:14;;;;;;;;;;;;;;;;;;5069727;28;19978;-68
2023/08/29 16:44:41;;;;;;;;;;;;;;;;;;5071212;28;19985;-69